Terminal Aerodrome Forecast
Issued by NWS

Current Version | Previous Version | Text Only | Print | Product List | Glossary On
Versions: 1 2 3 4 5 6 7 8 9 10 11 12 13 14 15
016
FTUS46 KMTR 211724
TAFSTS
TAF
KSTS 211724Z 2118/2218 VRB03KT P6SM SKC
     FM212000 17010KT P6SM SKC
     FM220400 16005KT P6SM SKC
     FM221000 00000KT 2SM BR OVC007
     FM221400 00000KT 1/2SM FG OVC004=

USA.gov is the U.S. government's official web portal to all federal, state and local government web resources and services.